sensor_id;sensor_type;location;lat;lon;timestamp;temperature;humidity
11647;DHT22;5880;52.342;9.662;2024-02-26T00:00:33;6.50;60.80
11647;DHT22;5880;52.342;9.662;2024-02-26T00:03:00;6.40;60.80
11647;DHT22;5880;52.342;9.662;2024-02-26T00:05:26;6.40;60.80
11647;DHT22;5880;52.342;9.662;2024-02-26T00:07:52;6.40;60.90
11647;DHT22;5880;52.342;9.662;2024-02-26T00:10:18;6.40;60.90
11647;DHT22;5880;52.342;9.662;2024-02-26T00:12:43;6.40;60.80
11647;DHT22;5880;52.342;9.662;2024-02-26T00:15:10;6.30;60.90
11647;DHT22;5880;52.342;9.662;2024-02-26T00:17:36;6.30;61.10
11647;DHT22;5880;52.342;9.662;2024-02-26T00:20:03;6.30;61.10
11647;DHT22;5880;52.342;9.662;2024-02-26T00:22:35;6.20;61.00
11647;DHT22;5880;52.342;9.662;2024-02-26T00:25:01;6.20;60.90
11647;DHT22;5880;52.342;9.662;2024-02-26T00:27:27;6.20;60.90
11647;DHT22;5880;52.342;9.662;2024-02-26T00:29:52;6.20;61.70
11647;DHT22;5880;52.342;9.662;2024-02-26T00:32:18;6.20;61.10
11647;DHT22;5880;52.342;9.662;2024-02-26T00:34:44;6.40;61.30
11647;DHT22;5880;52.342;9.662;2024-02-26T00:37:09;6.20;61.20
11647;DHT22;5880;52.342;9.662;2024-02-26T00:39:35;6.20;61.10
11647;DHT22;5880;52.342;9.662;2024-02-26T00:42:01;6.10;61.10
11647;DHT22;5880;52.342;9.662;2024-02-26T00:44:26;6.10;61.10
11647;DHT22;5880;52.342;9.662;2024-02-26T00:46:52;6.10;61.10
11647;DHT22;5880;52.342;9.662;2024-02-26T00:49:18;6.10;61.30
11647;DHT22;5880;52.342;9.662;2024-02-26T00:51:43;6.10;61.30
11647;DHT22;5880;52.342;9.662;2024-02-26T00:54:09;6.00;61.30
11647;DHT22;5880;52.342;9.662;2024-02-26T00:56:34;6.00;61.30
11647;DHT22;5880;52.342;9.662;2024-02-26T00:59:00;6.00;61.40
11647;DHT22;5880;52.342;9.662;2024-02-26T01:01:26;6.00;61.30
11647;DHT22;5880;52.342;9.662;2024-02-26T01:03:52;6.00;61.30
11647;DHT22;5880;52.342;9.662;2024-02-26T01:06:18;6.00;61.40
11647;DHT22;5880;52.342;9.662;2024-02-26T01:08:43;6.00;61.50
11647;DHT22;5880;52.342;9.662;2024-02-26T01:11:09;6.00;61.60
11647;DHT22;5880;52.342;9.662;2024-02-26T01:13:35;6.00;61.60
11647;DHT22;5880;52.342;9.662;2024-02-26T01:16:00;6.00;61.60
11647;DHT22;5880;52.342;9.662;2024-02-26T01:18:26;6.00;61.60
11647;DHT22;5880;52.342;9.662;2024-02-26T01:20:52;6.00;61.60
11647;DHT22;5880;52.342;9.662;2024-02-26T01:23:20;6.00;61.70
11647;DHT22;5880;52.342;9.662;2024-02-26T01:25:46;6.00;61.90
11647;DHT22;5880;52.342;9.662;2024-02-26T01:28:11;6.00;62.10
11647;DHT22;5880;52.342;9.662;2024-02-26T01:30:37;6.00;62.20
11647;DHT22;5880;52.342;9.662;2024-02-26T01:33:03;6.40;62.50
11647;DHT22;5880;52.342;9.662;2024-02-26T01:35:29;6.10;62.50
11647;DHT22;5880;52.342;9.662;2024-02-26T01:37:55;6.10;62.40
11647;DHT22;5880;52.342;9.662;2024-02-26T01:40:21;6.20;62.40
11647;DHT22;5880;52.342;9.662;2024-02-26T01:42:47;6.20;62.40
11647;DHT22;5880;52.342;9.662;2024-02-26T01:45:17;6.20;62.40
11647;DHT22;5880;52.342;9.662;2024-02-26T01:47:50;6.40;62.60
11647;DHT22;5880;52.342;9.662;2024-02-26T01:50:18;6.20;62.40
11647;DHT22;5880;52.342;9.662;2024-02-26T01:52:46;6.30;62.50
11647;DHT22;5880;52.342;9.662;2024-02-26T01:55:13;6.30;62.50
11647;DHT22;5880;52.342;9.662;2024-02-26T01:57:44;6.30;62.50
11647;DHT22;5880;52.342;9.662;2024-02-26T02:00:14;6.30;62.60
11647;DHT22;5880;52.342;9.662;2024-02-26T02:02:41;6.30;63.50
11647;DHT22;5880;52.342;9.662;2024-02-26T02:05:10;6.40;62.70
11647;DHT22;5880;52.342;9.662;2024-02-26T02:07:37;6.40;62.80
11647;DHT22;5880;52.342;9.662;2024-02-26T02:10:03;6.40;62.70
11647;DHT22;5880;52.342;9.662;2024-02-26T02:12:31;6.40;62.60
11647;DHT22;5880;52.342;9.662;2024-02-26T02:15:00;6.40;62.40
11647;DHT22;5880;52.342;9.662;2024-02-26T02:17:26;6.40;62.30
11647;DHT22;5880;52.342;9.662;2024-02-26T02:19:53;6.40;62.30
11647;DHT22;5880;52.342;9.662;2024-02-26T02:22:19;6.40;62.30
11647;DHT22;5880;52.342;9.662;2024-02-26T02:24:45;6.50;62.50
11647;DHT22;5880;52.342;9.662;2024-02-26T02:27:11;6.50;62.60
11647;DHT22;5880;52.342;9.662;2024-02-26T02:29:37;6.50;62.50
11647;DHT22;5880;52.342;9.662;2024-02-26T02:32:03;6.50;62.50
11647;DHT22;5880;52.342;9.662;2024-02-26T02:34:31;6.50;62.50
11647;DHT22;5880;52.342;9.662;2024-02-26T02:36:57;6.50;62.50
11647;DHT22;5880;52.342;9.662;2024-02-26T02:39:23;6.50;62.50
11647;DHT22;5880;52.342;9.662;2024-02-26T02:41:49;6.50;62.50
11647;DHT22;5880;52.342;9.662;2024-02-26T02:44:14;6.50;62.40
11647;DHT22;5880;52.342;9.662;2024-02-26T02:46:40;6.50;62.40
11647;DHT22;5880;52.342;9.662;2024-02-26T02:49:09;6.40;62.30
11647;DHT22;5880;52.342;9.662;2024-02-26T02:51:36;6.40;62.40
11647;DHT22;5880;52.342;9.662;2024-02-26T02:54:02;6.40;62.30
11647;DHT22;5880;52.342;9.662;2024-02-26T02:56:28;6.40;62.20
11647;DHT22;5880;52.342;9.662;2024-02-26T02:58:53;6.40;62.30
11647;DHT22;5880;52.342;9.662;2024-02-26T03:01:19;6.40;62.40
11647;DHT22;5880;52.342;9.662;2024-02-26T03:03:45;6.40;62.30
11647;DHT22;5880;52.342;9.662;2024-02-26T03:06:10;6.30;62.40
11647;DHT22;5880;52.342;9.662;2024-02-26T03:08:36;6.30;62.30
11647;DHT22;5880;52.342;9.662;2024-02-26T03:11:04;6.30;62.40
11647;DHT22;5880;52.342;9.662;2024-02-26T03:13:29;6.30;62.40
11647;DHT22;5880;52.342;9.662;2024-02-26T03:15:55;6.40;62.40
11647;DHT22;5880;52.342;9.662;2024-02-26T03:18:21;6.20;62.30
11647;DHT22;5880;52.342;9.662;2024-02-26T03:20:47;6.20;62.30
11647;DHT22;5880;52.342;9.662;2024-02-26T03:23:12;6.20;62.30
11647;DHT22;5880;52.342;9.662;2024-02-26T03:25:42;6.20;62.30
11647;DHT22;5880;52.342;9.662;2024-02-26T03:28:11;6.90;62.80
11647;DHT22;5880;52.342;9.662;2024-02-26T03:30:38;6.20;63.20
11647;DHT22;5880;52.342;9.662;2024-02-26T03:33:03;6.10;62.50
11647;DHT22;5880;52.342;9.662;2024-02-26T03:35:29;6.20;62.60
11647;DHT22;5880;52.342;9.662;2024-02-26T03:37:55;6.20;62.70
11647;DHT22;5880;52.342;9.662;2024-02-26T03:40:20;6.10;62.70
11647;DHT22;5880;52.342;9.662;2024-02-26T03:42:46;6.10;62.60
11647;DHT22;5880;52.342;9.662;2024-02-26T03:45:12;6.10;62.60
11647;DHT22;5880;52.342;9.662;2024-02-26T03:47:38;6.10;62.50
11647;DHT22;5880;52.342;9.662;2024-02-26T03:50:07;6.10;62.50
11647;DHT22;5880;52.342;9.662;2024-02-26T03:52:33;6.10;62.60
11647;DHT22;5880;52.342;9.662;2024-02-26T03:54:59;6.10;62.60
11647;DHT22;5880;52.342;9.662;2024-02-26T03:57:25;6.10;62.60
11647;DHT22;5880;52.342;9.662;2024-02-26T03:59:50;6.20;62.60
11647;DHT22;5880;52.342;9.662;2024-02-26T04:02:16;6.00;62.60
11647;DHT22;5880;52.342;9.662;2024-02-26T04:04:42;6.00;62.70
11647;DHT22;5880;52.342;9.662;2024-02-26T04:07:07;6.10;62.80
11647;DHT22;5880;52.342;9.662;2024-02-26T04:09:33;6.00;62.80
11647;DHT22;5880;52.342;9.662;2024-02-26T04:11:59;6.00;62.90
11647;DHT22;5880;52.342;9.662;2024-02-26T04:14:25;6.00;62.90
11647;DHT22;5880;52.342;9.662;2024-02-26T04:16:51;6.00;63.00
11647;DHT22;5880;52.342;9.662;2024-02-26T04:19:19;6.10;63.00
11647;DHT22;5880;52.342;9.662;2024-02-26T04:21:45;6.10;63.10
11647;DHT22;5880;52.342;9.662;2024-02-26T04:24:11;6.10;63.10
11647;DHT22;5880;52.342;9.662;2024-02-26T04:26:37;6.10;63.20
11647;DHT22;5880;52.342;9.662;2024-02-26T04:29:02;6.10;63.20
11647;DHT22;5880;52.342;9.662;2024-02-26T04:31:28;6.10;63.30
11647;DHT22;5880;52.342;9.662;2024-02-26T04:33:54;6.10;63.30
11647;DHT22;5880;52.342;9.662;2024-02-26T04:36:19;6.10;63.30
11647;DHT22;5880;52.342;9.662;2024-02-26T04:38:45;6.20;63.40
11647;DHT22;5880;52.342;9.662;2024-02-26T04:41:11;6.30;63.50
11647;DHT22;5880;52.342;9.662;2024-02-26T04:43:38;6.20;63.50
11647;DHT22;5880;52.342;9.662;2024-02-26T04:46:09;6.30;63.60
11647;DHT22;5880;52.342;9.662;2024-02-26T04:48:35;6.20;63.40
11647;DHT22;5880;52.342;9.662;2024-02-26T04:51:02;6.20;63.30
11647;DHT22;5880;52.342;9.662;2024-02-26T04:53:28;6.20;63.30
11647;DHT22;5880;52.342;9.662;2024-02-26T04:55:54;6.30;63.40
11647;DHT22;5880;52.342;9.662;2024-02-26T04:58:20;6.20;63.40
11647;DHT22;5880;52.342;9.662;2024-02-26T05:00:45;6.30;63.50
11647;DHT22;5880;52.342;9.662;2024-02-26T05:03:11;6.30;63.50
11647;DHT22;5880;52.342;9.662;2024-02-26T05:05:44;6.30;63.50
11647;DHT22;5880;52.342;9.662;2024-02-26T05:08:10;6.30;63.60
11647;DHT22;5880;52.342;9.662;2024-02-26T05:10:37;6.30;63.60
11647;DHT22;5880;52.342;9.662;2024-02-26T05:13:06;6.40;63.60
11647;DHT22;5880;52.342;9.662;2024-02-26T05:15:32;6.40;63.60
11647;DHT22;5880;52.342;9.662;2024-02-26T05:17:58;6.40;63.60
11647;DHT22;5880;52.342;9.662;2024-02-26T05:20:24;6.40;63.60
11647;DHT22;5880;52.342;9.662;2024-02-26T05:22:50;6.40;63.60
11647;DHT22;5880;52.342;9.662;2024-02-26T05:25:16;6.40;63.60
11647;DHT22;5880;52.342;9.662;2024-02-26T05:27:43;6.40;63.60
11647;DHT22;5880;52.342;9.662;2024-02-26T05:30:10;6.40;63.60
11647;DHT22;5880;52.342;9.662;2024-02-26T05:32:36;6.50;63.70
11647;DHT22;5880;52.342;9.662;2024-02-26T05:35:02;6.40;63.60
11647;DHT22;5880;52.342;9.662;2024-02-26T05:37:29;6.50;63.70
11647;DHT22;5880;52.342;9.662;2024-02-26T05:39:55;6.60;63.80
11647;DHT22;5880;52.342;9.662;2024-02-26T05:42:21;6.50;63.80
11647;DHT22;5880;52.342;9.662;2024-02-26T05:44:46;6.50;63.90
11647;DHT22;5880;52.342;9.662;2024-02-26T05:47:12;6.50;63.90
11647;DHT22;5880;52.342;9.662;2024-02-26T05:49:39;6.50;63.80
11647;DHT22;5880;52.342;9.662;2024-02-26T05:52:06;6.50;63.80
11647;DHT22;5880;52.342;9.662;2024-02-26T05:54:31;6.50;63.70
11647;DHT22;5880;52.342;9.662;2024-02-26T05:56:57;6.60;63.80
11647;DHT22;5880;52.342;9.662;2024-02-26T05:59:23;6.60;63.90
11647;DHT22;5880;52.342;9.662;2024-02-26T06:01:49;6.60;63.90
11647;DHT22;5880;52.342;9.662;2024-02-26T06:04:14;6.60;64.00
11647;DHT22;5880;52.342;9.662;2024-02-26T06:06:42;6.60;63.90
11647;DHT22;5880;52.342;9.662;2024-02-26T06:09:08;6.60;63.90
11647;DHT22;5880;52.342;9.662;2024-02-26T06:11:33;6.60;63.90
11647;DHT22;5880;52.342;9.662;2024-02-26T06:13:59;6.70;64.00
11647;DHT22;5880;52.342;9.662;2024-02-26T06:16:24;6.70;64.00
11647;DHT22;5880;52.342;9.662;2024-02-26T06:18:50;6.70;64.10
11647;DHT22;5880;52.342;9.662;2024-02-26T06:21:16;6.70;64.10
11647;DHT22;5880;52.342;9.662;2024-02-26T06:23:41;6.70;64.10
11647;DHT22;5880;52.342;9.662;2024-02-26T06:26:07;6.70;64.10
11647;DHT22;5880;52.342;9.662;2024-02-26T06:28:33;6.80;64.00
11647;DHT22;5880;52.342;9.662;2024-02-26T06:31:01;6.80;64.10
11647;DHT22;5880;52.342;9.662;2024-02-26T06:33:27;6.80;64.10
11647;DHT22;5880;52.342;9.662;2024-02-26T06:35:53;6.90;64.20
11647;DHT22;5880;52.342;9.662;2024-02-26T06:38:19;6.80;64.90
11647;DHT22;5880;52.342;9.662;2024-02-26T06:40:45;6.90;64.10
11647;DHT22;5880;52.342;9.662;2024-02-26T06:43:11;6.90;64.00
11647;DHT22;5880;52.342;9.662;2024-02-26T06:45:37;6.90;64.00
11647;DHT22;5880;52.342;9.662;2024-02-26T06:48:02;6.90;64.00
11647;DHT22;5880;52.342;9.662;2024-02-26T06:50:28;7.00;64.10
11647;DHT22;5880;52.342;9.662;2024-02-26T06:52:53;7.00;64.00
11647;DHT22;5880;52.342;9.662;2024-02-26T06:55:19;7.10;64.00
11647;DHT22;5880;52.342;9.662;2024-02-26T06:57:45;7.10;63.90
11647;DHT22;5880;52.342;9.662;2024-02-26T07:00:11;7.10;64.00
11647;DHT22;5880;52.342;9.662;2024-02-26T07:02:42;7.20;64.00
11647;DHT22;5880;52.342;9.662;2024-02-26T07:05:08;7.20;63.90
11647;DHT22;5880;52.342;9.662;2024-02-26T07:07:34;7.20;63.80
11647;DHT22;5880;52.342;9.662;2024-02-26T07:09:59;7.20;63.90
11647;DHT22;5880;52.342;9.662;2024-02-26T07:12:29;7.30;64.10
11647;DHT22;5880;52.342;9.662;2024-02-26T07:14:55;7.30;64.10
11647;DHT22;5880;52.342;9.662;2024-02-26T07:17:21;7.40;64.10
11647;DHT22;5880;52.342;9.662;2024-02-26T07:19:47;7.40;64.00
11647;DHT22;5880;52.342;9.662;2024-02-26T07:22:12;7.40;64.00
11647;DHT22;5880;52.342;9.662;2024-02-26T07:24:39;7.50;63.90
11647;DHT22;5880;52.342;9.662;2024-02-26T07:27:04;7.50;63.80
11647;DHT22;5880;52.342;9.662;2024-02-26T07:29:30;7.50;63.50
11647;DHT22;5880;52.342;9.662;2024-02-26T07:31:56;7.50;63.50
11647;DHT22;5880;52.342;9.662;2024-02-26T07:34:21;7.50;63.50
11647;DHT22;5880;52.342;9.662;2024-02-26T07:36:53;7.50;63.40
11647;DHT22;5880;52.342;9.662;2024-02-26T07:39:19;7.50;64.00
11647;DHT22;5880;52.342;9.662;2024-02-26T07:41:44;7.50;63.40
11647;DHT22;5880;52.342;9.662;2024-02-26T07:44:13;7.50;63.40
11647;DHT22;5880;52.342;9.662;2024-02-26T07:46:39;7.60;63.40
11647;DHT22;5880;52.342;9.662;2024-02-26T07:49:04;7.60;63.60
11647;DHT22;5880;52.342;9.662;2024-02-26T07:51:30;7.60;63.50
11647;DHT22;5880;52.342;9.662;2024-02-26T07:53:56;7.60;63.60
11647;DHT22;5880;52.342;9.662;2024-02-26T07:56:21;7.60;63.80
11647;DHT22;5880;52.342;9.662;2024-02-26T07:58:47;7.70;64.00
11647;DHT22;5880;52.342;9.662;2024-02-26T08:01:13;7.70;64.10
11647;DHT22;5880;52.342;9.662;2024-02-26T08:03:40;7.80;64.00
11647;DHT22;5880;52.342;9.662;2024-02-26T08:06:05;7.80;63.80
11647;DHT22;5880;52.342;9.662;2024-02-26T08:08:33;7.90;63.80
11647;DHT22;5880;52.342;9.662;2024-02-26T08:10:58;7.90;63.70
11647;DHT22;5880;52.342;9.662;2024-02-26T08:13:24;7.90;63.60
11647;DHT22;5880;52.342;9.662;2024-02-26T08:15:50;7.90;63.40
11647;DHT22;5880;52.342;9.662;2024-02-26T08:18:15;7.90;63.40
11647;DHT22;5880;52.342;9.662;2024-02-26T08:20:41;7.90;63.40
11647;DHT22;5880;52.342;9.662;2024-02-26T08:23:07;8.00;63.40
11647;DHT22;5880;52.342;9.662;2024-02-26T08:25:32;8.00;63.40
11647;DHT22;5880;52.342;9.662;2024-02-26T08:27:58;8.10;63.40
11647;DHT22;5880;52.342;9.662;2024-02-26T08:30:24;8.00;63.00
11647;DHT22;5880;52.342;9.662;2024-02-26T08:32:49;8.10;63.10
11647;DHT22;5880;52.342;9.662;2024-02-26T08:35:15;8.10;63.20
11647;DHT22;5880;52.342;9.662;2024-02-26T08:37:44;8.10;63.10
11647;DHT22;5880;52.342;9.662;2024-02-26T08:40:11;8.10;62.80
11647;DHT22;5880;52.342;9.662;2024-02-26T08:42:37;8.10;63.00
11647;DHT22;5880;52.342;9.662;2024-02-26T08:45:03;8.10;62.90
11647;DHT22;5880;52.342;9.662;2024-02-26T08:47:29;8.20;62.70
11647;DHT22;5880;52.342;9.662;2024-02-26T08:49:54;8.20;62.90
11647;DHT22;5880;52.342;9.662;2024-02-26T08:52:20;8.20;62.90
11647;DHT22;5880;52.342;9.662;2024-02-26T08:54:47;8.20;62.70
11647;DHT22;5880;52.342;9.662;2024-02-26T08:57:12;8.30;62.90
11647;DHT22;5880;52.342;9.662;2024-02-26T08:59:38;8.30;62.90
11647;DHT22;5880;52.342;9.662;2024-02-26T09:02:04;8.30;62.80
11647;DHT22;5880;52.342;9.662;2024-02-26T09:04:29;8.40;62.70
11647;DHT22;5880;52.342;9.662;2024-02-26T09:06:55;8.40;62.50
11647;DHT22;5880;52.342;9.662;2024-02-26T09:09:21;8.50;62.80
11647;DHT22;5880;52.342;9.662;2024-02-26T09:11:48;8.50;62.50
11647;DHT22;5880;52.342;9.662;2024-02-26T09:14:17;8.50;62.20
11647;DHT22;5880;52.342;9.662;2024-02-26T09:16:42;8.50;62.20
11647;DHT22;5880;52.342;9.662;2024-02-26T09:19:08;8.50;62.40
11647;DHT22;5880;52.342;9.662;2024-02-26T09:21:34;8.60;62.50
11647;DHT22;5880;52.342;9.662;2024-02-26T09:23:59;8.60;62.60
11647;DHT22;5880;52.342;9.662;2024-02-26T09:26:25;8.60;62.20
11647;DHT22;5880;52.342;9.662;2024-02-26T09:28:51;8.60;61.50
11647;DHT22;5880;52.342;9.662;2024-02-26T09:31:17;8.70;61.80
11647;DHT22;5880;52.342;9.662;2024-02-26T09:33:43;8.70;61.80
11647;DHT22;5880;52.342;9.662;2024-02-26T09:36:09;8.70;60.60
11647;DHT22;5880;52.342;9.662;2024-02-26T09:38:36;8.80;61.20
11647;DHT22;5880;52.342;9.662;2024-02-26T09:41:04;8.80;61.80
11647;DHT22;5880;52.342;9.662;2024-02-26T09:43:35;8.80;61.60
11647;DHT22;5880;52.342;9.662;2024-02-26T09:46:05;8.90;61.40
11647;DHT22;5880;52.342;9.662;2024-02-26T09:48:32;8.90;61.10
11647;DHT22;5880;52.342;9.662;2024-02-26T09:51:00;8.90;61.60
11647;DHT22;5880;52.342;9.662;2024-02-26T09:53:29;9.00;61.30
11647;DHT22;5880;52.342;9.662;2024-02-26T09:55:58;9.00;61.30
11647;DHT22;5880;52.342;9.662;2024-02-26T09:58:28;9.10;61.40
11647;DHT22;5880;52.342;9.662;2024-02-26T10:00:56;9.10;61.70
11647;DHT22;5880;52.342;9.662;2024-02-26T10:03:28;9.10;61.70
11647;DHT22;5880;52.342;9.662;2024-02-26T10:05:58;9.20;61.50
11647;DHT22;5880;52.342;9.662;2024-02-26T10:08:25;9.20;61.60
11647;DHT22;5880;52.342;9.662;2024-02-26T10:10:51;9.30;61.50
11647;DHT22;5880;52.342;9.662;2024-02-26T10:13:18;9.30;61.10
11647;DHT22;5880;52.342;9.662;2024-02-26T10:15:45;9.40;61.40
11647;DHT22;5880;52.342;9.662;2024-02-26T10:18:11;9.40;61.30
11647;DHT22;5880;52.342;9.662;2024-02-26T10:20:37;9.40;61.00
11647;DHT22;5880;52.342;9.662;2024-02-26T10:23:03;9.50;60.60
11647;DHT22;5880;52.342;9.662;2024-02-26T10:25:30;9.50;59.90
11647;DHT22;5880;52.342;9.662;2024-02-26T10:28:00;9.60;60.00
11647;DHT22;5880;52.342;9.662;2024-02-26T10:30:29;9.60;60.00
11647;DHT22;5880;52.342;9.662;2024-02-26T10:32:56;9.70;59.90
11647;DHT22;5880;52.342;9.662;2024-02-26T10:35:23;9.70;58.80
11647;DHT22;5880;52.342;9.662;2024-02-26T10:37:50;9.70;59.00
11647;DHT22;5880;52.342;9.662;2024-02-26T10:40:16;9.70;60.00
11647;DHT22;5880;52.342;9.662;2024-02-26T10:42:43;9.70;59.30
11647;DHT22;5880;52.342;9.662;2024-02-26T10:45:10;9.80;58.90
11647;DHT22;5880;52.342;9.662;2024-02-26T10:47:36;9.80;58.80
11647;DHT22;5880;52.342;9.662;2024-02-26T10:50:03;9.80;58.50
11647;DHT22;5880;52.342;9.662;2024-02-26T10:52:35;9.80;58.80
11647;DHT22;5880;52.342;9.662;2024-02-26T10:55:03;9.80;58.70
11647;DHT22;5880;52.342;9.662;2024-02-26T10:57:42;9.90;59.50
11647;DHT22;5880;52.342;9.662;2024-02-26T11:00:13;9.90;59.80
11647;DHT22;5880;52.342;9.662;2024-02-26T11:02:41;9.90;59.70
11647;DHT22;5880;52.342;9.662;2024-02-26T11:05:08;10.00;59.70
11647;DHT22;5880;52.342;9.662;2024-02-26T11:07:37;10.00;59.40
11647;DHT22;5880;52.342;9.662;2024-02-26T11:10:04;10.00;59.40
11647;DHT22;5880;52.342;9.662;2024-02-26T11:12:34;10.10;59.40
11647;DHT22;5880;52.342;9.662;2024-02-26T11:15:03;10.10;59.50
11647;DHT22;5880;52.342;9.662;2024-02-26T11:17:29;10.10;59.20
11647;DHT22;5880;52.342;9.662;2024-02-26T11:19:57;10.00;57.70
11647;DHT22;5880;52.342;9.662;2024-02-26T11:22:27;10.10;58.30
11647;DHT22;5880;52.342;9.662;2024-02-26T11:24:55;10.10;58.90
11647;DHT22;5880;52.342;9.662;2024-02-26T11:27:39;10.10;58.80
11647;DHT22;5880;52.342;9.662;2024-02-26T11:30:12;10.20;57.70
11647;DHT22;5880;52.342;9.662;2024-02-26T11:32:39;10.10;57.80
11647;DHT22;5880;52.342;9.662;2024-02-26T11:35:05;10.20;58.80
11647;DHT22;5880;52.342;9.662;2024-02-26T11:37:33;10.30;59.10
11647;DHT22;5880;52.342;9.662;2024-02-26T11:39:59;10.30;59.40
11647;DHT22;5880;52.342;9.662;2024-02-26T11:42:29;10.40;58.60
11647;DHT22;5880;52.342;9.662;2024-02-26T11:44:55;10.40;58.90
11647;DHT22;5880;52.342;9.662;2024-02-26T11:47:27;10.50;58.90
11647;DHT22;5880;52.342;9.662;2024-02-26T11:49:52;10.50;58.50
11647;DHT22;5880;52.342;9.662;2024-02-26T11:52:18;10.60;58.60
11647;DHT22;5880;52.342;9.662;2024-02-26T11:54:51;10.60;57.90
11647;DHT22;5880;52.342;9.662;2024-02-26T12:05:23;10.80;57.20
11647;DHT22;5880;52.342;9.662;2024-02-26T12:07:53;10.90;58.70
11647;DHT22;5880;52.342;9.662;2024-02-26T12:10:30;11.00;58.80
11647;DHT22;5880;52.342;9.662;2024-02-26T12:13:21;11.00;57.80
11647;DHT22;5880;52.342;9.662;2024-02-26T12:15:56;11.10;57.30
11647;DHT22;5880;52.342;9.662;2024-02-26T12:18:23;11.10;57.70
11647;DHT22;5880;52.342;9.662;2024-02-26T12:21:03;11.20;56.80
11647;DHT22;5880;52.342;9.662;2024-02-26T12:23:29;11.20;54.80
11647;DHT22;5880;52.342;9.662;2024-02-26T12:26:01;11.20;56.10
11647;DHT22;5880;52.342;9.662;2024-02-26T12:28:31;11.20;55.90
11647;DHT22;5880;52.342;9.662;2024-02-26T12:30:57;11.20;55.90
11647;DHT22;5880;52.342;9.662;2024-02-26T12:33:25;11.20;56.20
11647;DHT22;5880;52.342;9.662;2024-02-26T12:35:52;11.30;56.30
11647;DHT22;5880;52.342;9.662;2024-02-26T12:38:18;11.30;56.20
11647;DHT22;5880;52.342;9.662;2024-02-26T12:40:45;11.30;56.60
11647;DHT22;5880;52.342;9.662;2024-02-26T12:43:11;11.30;56.50
11647;DHT22;5880;52.342;9.662;2024-02-26T12:45:41;11.40;56.00
11647;DHT22;5880;52.342;9.662;2024-02-26T12:48:07;11.40;55.90
11647;DHT22;5880;52.342;9.662;2024-02-26T12:50:34;11.50;56.40
11647;DHT22;5880;52.342;9.662;2024-02-26T12:53:00;11.50;56.50
11647;DHT22;5880;52.342;9.662;2024-02-26T12:55:26;11.60;56.40
11647;DHT22;5880;52.342;9.662;2024-02-26T12:57:52;11.60;55.80
11647;DHT22;5880;52.342;9.662;2024-02-26T13:00:22;11.60;55.90
11647;DHT22;5880;52.342;9.662;2024-02-26T13:02:50;11.70;56.60
11647;DHT22;5880;52.342;9.662;2024-02-26T13:05:18;11.70;56.50
11647;DHT22;5880;52.342;9.662;2024-02-26T13:07:45;11.70;56.00
11647;DHT22;5880;52.342;9.662;2024-02-26T13:10:17;11.70;56.30
11647;DHT22;5880;52.342;9.662;2024-02-26T13:12:48;11.70;55.50
11647;DHT22;5880;52.342;9.662;2024-02-26T13:15:19;11.70;54.40
11647;DHT22;5880;52.342;9.662;2024-02-26T13:17:47;11.70;55.30
11647;DHT22;5880;52.342;9.662;2024-02-26T13:20:30;11.70;55.80
11647;DHT22;5880;52.342;9.662;2024-02-26T13:23:04;11.70;55.20
11647;DHT22;5880;52.342;9.662;2024-02-26T13:25:31;11.80;55.10
11647;DHT22;5880;52.342;9.662;2024-02-26T13:28:18;11.80;56.10
11647;DHT22;5880;52.342;9.662;2024-02-26T13:30:54;11.80;53.50
11647;DHT22;5880;52.342;9.662;2024-02-26T13:33:26;11.80;54.00
11647;DHT22;5880;52.342;9.662;2024-02-26T13:35:55;11.80;55.30
11647;DHT22;5880;52.342;9.662;2024-02-26T13:38:22;11.80;56.00
11647;DHT22;5880;52.342;9.662;2024-02-26T13:40:49;11.80;56.30
11647;DHT22;5880;52.342;9.662;2024-02-26T13:43:15;11.80;55.60
11647;DHT22;5880;52.342;9.662;2024-02-26T13:45:41;11.80;56.20
11647;DHT22;5880;52.342;9.662;2024-02-26T13:48:08;11.80;55.40
11647;DHT22;5880;52.342;9.662;2024-02-26T13:50:37;11.80;55.70
11647;DHT22;5880;52.342;9.662;2024-02-26T13:53:08;11.80;55.90
11647;DHT22;5880;52.342;9.662;2024-02-26T13:55:34;11.80;56.30
11647;DHT22;5880;52.342;9.662;2024-02-26T13:58:01;11.80;56.00
11647;DHT22;5880;52.342;9.662;2024-02-26T14:00:28;11.80;55.80
11647;DHT22;5880;52.342;9.662;2024-02-26T14:02:57;11.80;56.00
11647;DHT22;5880;52.342;9.662;2024-02-26T14:05:23;11.80;56.30
11647;DHT22;5880;52.342;9.662;2024-02-26T14:07:49;11.80;55.90
11647;DHT22;5880;52.342;9.662;2024-02-26T14:10:15;11.80;56.10
11647;DHT22;5880;52.342;9.662;2024-02-26T14:12:41;11.70;56.20
11647;DHT22;5880;52.342;9.662;2024-02-26T14:15:08;11.70;56.00
11647;DHT22;5880;52.342;9.662;2024-02-26T14:17:35;11.70;55.50
11647;DHT22;5880;52.342;9.662;2024-02-26T14:20:01;11.70;55.80
11647;DHT22;5880;52.342;9.662;2024-02-26T14:22:28;11.70;56.00
11647;DHT22;5880;52.342;9.662;2024-02-26T14:24:56;11.70;56.00
11647;DHT22;5880;52.342;9.662;2024-02-26T14:27:22;11.70;56.10
11647;DHT22;5880;52.342;9.662;2024-02-26T14:29:48;11.70;55.80
11647;DHT22;5880;52.342;9.662;2024-02-26T14:32:14;11.70;55.70
11647;DHT22;5880;52.342;9.662;2024-02-26T14:34:40;11.60;55.40
11647;DHT22;5880;52.342;9.662;2024-02-26T14:37:06;11.70;55.60
11647;DHT22;5880;52.342;9.662;2024-02-26T14:39:32;11.70;55.80
11647;DHT22;5880;52.342;9.662;2024-02-26T14:41:58;11.60;55.50
11647;DHT22;5880;52.342;9.662;2024-02-26T14:44:25;11.60;55.80
11647;DHT22;5880;52.342;9.662;2024-02-26T14:46:51;11.60;55.70
11647;DHT22;5880;52.342;9.662;2024-02-26T14:49:17;11.60;56.10
11647;DHT22;5880;52.342;9.662;2024-02-26T14:51:43;11.70;56.30
11647;DHT22;5880;52.342;9.662;2024-02-26T14:54:11;11.70;56.40
11647;DHT22;5880;52.342;9.662;2024-02-26T14:56:37;11.70;56.10
11647;DHT22;5880;52.342;9.662;2024-02-26T14:59:03;11.70;56.40
11647;DHT22;5880;52.342;9.662;2024-02-26T15:01:28;11.70;56.10
11647;DHT22;5880;52.342;9.662;2024-02-26T15:03:54;11.70;56.20
11647;DHT22;5880;52.342;9.662;2024-02-26T15:06:20;11.70;55.90
11647;DHT22;5880;52.342;9.662;2024-02-26T15:08:45;11.70;56.00
11647;DHT22;5880;52.342;9.662;2024-02-26T15:11:12;11.70;56.30
11647;DHT22;5880;52.342;9.662;2024-02-26T15:13:37;11.70;56.30
11647;DHT22;5880;52.342;9.662;2024-02-26T15:16:03;11.60;55.90
11647;DHT22;5880;52.342;9.662;2024-02-26T15:18:29;11.70;56.20
11647;DHT22;5880;52.342;9.662;2024-02-26T15:20:55;11.70;56.10
11647;DHT22;5880;52.342;9.662;2024-02-26T15:23:20;11.70;55.90
11647;DHT22;5880;52.342;9.662;2024-02-26T15:25:46;11.70;55.70
11647;DHT22;5880;52.342;9.662;2024-02-26T15:28:12;11.60;55.90
11647;DHT22;5880;52.342;9.662;2024-02-26T15:30:40;11.60;55.70
11647;DHT22;5880;52.342;9.662;2024-02-26T15:33:06;11.60;55.60
11647;DHT22;5880;52.342;9.662;2024-02-26T15:35:32;11.60;55.70
11647;DHT22;5880;52.342;9.662;2024-02-26T15:37:57;11.60;55.50
11647;DHT22;5880;52.342;9.662;2024-02-26T15:40:24;11.60;55.60
11647;DHT22;5880;52.342;9.662;2024-02-26T15:42:50;11.60;55.40
11647;DHT22;5880;52.342;9.662;2024-02-26T15:45:15;11.80;55.60
11647;DHT22;5880;52.342;9.662;2024-02-26T15:47:42;11.60;55.70
11647;DHT22;5880;52.342;9.662;2024-02-26T15:50:08;11.60;55.90
11647;DHT22;5880;52.342;9.662;2024-02-26T15:52:37;11.60;55.60
11647;DHT22;5880;52.342;9.662;2024-02-26T15:55:05;11.60;56.00
11647;DHT22;5880;52.342;9.662;2024-02-26T15:57:31;11.60;55.70
11647;DHT22;5880;52.342;9.662;2024-02-26T15:59:58;11.60;55.60
11647;DHT22;5880;52.342;9.662;2024-02-26T16:02:27;11.60;55.90